sensor_id;sensor_type;location;lat;lon;timestamp;pressure;altitude;pressure_sealevel;temperature;humidity
59829;BME280;45708;51.848;107.620;2023-02-17T00:02:58;95650.38;;;-21.61;71.13
59829;BME280;45708;51.848;107.620;2023-02-17T00:07:59;95647.06;;;-21.67;70.84
59829;BME280;45708;51.848;107.620;2023-02-17T00:13:00;95657.91;;;-21.65;71.25
59829;BME280;45708;51.848;107.620;2023-02-17T00:18:01;95666.28;;;-21.66;71.17
59829;BME280;45708;51.848;107.620;2023-02-17T00:23:02;95668.75;;;-21.65;71.03
59829;BME280;45708;51.848;107.620;2023-02-17T00:28:03;95677.94;;;-21.64;71.09
59829;BME280;45708;51.848;107.620;2023-02-17T00:33:03;95680.25;;;-21.42;70.58
59829;BME280;45708;51.848;107.620;2023-02-17T00:38:04;95678.38;;;-20.54;69.65
59829;BME280;45708;51.848;107.620;2023-02-17T00:43:05;95677.28;;;-19.32;68.31
59829;BME280;45708;51.848;107.620;2023-02-17T00:48:06;95672.69;;;-18.28;66.05
59829;BME280;45708;51.848;107.620;2023-02-17T00:53:07;95689.47;;;-18.66;66.23
59829;BME280;45708;51.848;107.620;2023-02-17T00:58:08;95699.75;;;-19.23;67.37
59829;BME280;45708;51.848;107.620;2023-02-17T01:03:08;95676.91;;;-16.91;63.56
59829;BME280;45708;51.848;107.620;2023-02-17T01:08:09;95694.56;;;-15.47;60.44
59829;BME280;45708;51.848;107.620;2023-02-17T01:13:11;95694.38;;;-14.41;59.58
59829;BME280;45708;51.848;107.620;2023-02-17T01:18:14;95696.31;;;-14.02;57.29
59829;BME280;45708;51.848;107.620;2023-02-17T01:23:15;95700.63;;;-14.28;56.20
59829;BME280;45708;51.848;107.620;2023-02-17T01:28:20;95700.78;;;-14.54;55.89
59829;BME280;45708;51.848;107.620;2023-02-17T01:33:21;95706.28;;;-14.43;55.10
59829;BME280;45708;51.848;107.620;2023-02-17T01:38:22;95694.69;;;-13.82;54.73
59829;BME280;45708;51.848;107.620;2023-02-17T01:43:23;95702.09;;;-12.91;53.12
59829;BME280;45708;51.848;107.620;2023-02-17T01:48:31;95708.50;;;-13.23;52.98
59829;BME280;45708;51.848;107.620;2023-02-17T01:58:46;95711.50;;;-12.93;52.60
59829;BME280;45708;51.848;107.620;2023-02-17T02:03:50;95714.16;;;-14.99;55.81
59829;BME280;45708;51.848;107.620;2023-02-17T02:14:03;95715.03;;;-17.33;59.96
59829;BME280;45708;51.848;107.620;2023-02-17T02:24:59;95729.72;;;-17.48;60.65
59829;BME280;45708;51.848;107.620;2023-02-17T02:40:41;95738.63;;;-17.34;61.24
59829;BME280;45708;51.848;107.620;2023-02-17T02:45:43;95736.69;;;-16.90;61.03
59829;BME280;45708;51.848;107.620;2023-02-17T02:50:58;95740.34;;;-16.69;60.49
59829;BME280;45708;51.848;107.620;2023-02-17T03:06:48;95739.13;;;-15.95;61.14
59829;BME280;45708;51.848;107.620;2023-02-17T03:11:53;95735.19;;;-15.50;61.01
59829;BME280;45708;51.848;107.620;2023-02-17T03:16:55;95727.22;;;-15.11;60.73
59829;BME280;45708;51.848;107.620;2023-02-17T03:22:00;95726.75;;;-14.97;60.59
59829;BME280;45708;51.848;107.620;2023-02-17T03:27:04;95717.44;;;-14.97;60.60
59829;BME280;45708;51.848;107.620;2023-02-17T03:32:06;95738.78;;;-15.04;60.63
59829;BME280;45708;51.848;107.620;2023-02-17T03:37:07;95733.81;;;-15.07;61.82
59829;BME280;45708;51.848;107.620;2023-02-17T03:42:08;95735.38;;;-15.03;61.98
59829;BME280;45708;51.848;107.620;2023-02-17T03:47:09;95701.03;;;-15.12;61.25
59829;BME280;45708;51.848;107.620;2023-02-17T03:52:09;95726.16;;;-14.79;60.92
59829;BME280;45708;51.848;107.620;2023-02-17T03:57:10;95728.63;;;-14.78;61.13
59829;BME280;45708;51.848;107.620;2023-02-17T04:02:11;95725.53;;;-14.61;60.01
59829;BME280;45708;51.848;107.620;2023-02-17T04:07:12;95718.13;;;-14.67;61.22
59829;BME280;45708;51.848;107.620;2023-02-17T04:12:13;95723.03;;;-14.62;59.42
59829;BME280;45708;51.848;107.620;2023-02-17T04:17:14;95724.03;;;-14.91;60.09
59829;BME280;45708;51.848;107.620;2023-02-17T04:22:14;95726.88;;;-14.76;60.90
59829;BME280;45708;51.848;107.620;2023-02-17T04:27:15;95728.78;;;-14.34;60.09
59829;BME280;45708;51.848;107.620;2023-02-17T04:32:16;95724.13;;;-14.23;60.69
59829;BME280;45708;51.848;107.620;2023-02-17T04:37:17;95720.06;;;-14.03;60.14
59829;BME280;45708;51.848;107.620;2023-02-17T04:42:18;95721.34;;;-14.15;60.64
59829;BME280;45708;51.848;107.620;2023-02-17T04:47:19;95702.69;;;-14.14;59.89
59829;BME280;45708;51.848;107.620;2023-02-17T04:52:19;95692.69;;;-13.95;59.35
59829;BME280;45708;51.848;107.620;2023-02-17T04:57:20;95705.34;;;-13.72;59.70
59829;BME280;45708;51.848;107.620;2023-02-17T05:02:21;95678.00;;;-13.23;59.77
59829;BME280;45708;51.848;107.620;2023-02-17T05:07:23;95677.56;;;-12.92;58.93
59829;BME280;45708;51.848;107.620;2023-02-17T05:12:24;95669.72;;;-12.87;59.67
59829;BME280;45708;51.848;107.620;2023-02-17T05:17:25;95665.78;;;-12.74;59.34
59829;BME280;45708;51.848;107.620;2023-02-17T05:22:27;95657.41;;;-12.76;58.17
59829;BME280;45708;51.848;107.620;2023-02-17T05:27:28;95651.81;;;-13.05;57.82
59829;BME280;45708;51.848;107.620;2023-02-17T05:32:29;95657.66;;;-12.82;58.66
59829;BME280;45708;51.848;107.620;2023-02-17T05:37:30;95669.09;;;-12.72;57.91
59829;BME280;45708;51.848;107.620;2023-02-17T05:42:30;95669.22;;;-12.55;57.98
59829;BME280;45708;51.848;107.620;2023-02-17T05:47:31;95661.44;;;-12.52;58.00
59829;BME280;45708;51.848;107.620;2023-02-17T05:52:32;95660.09;;;-12.21;57.82
59829;BME280;45708;51.848;107.620;2023-02-17T05:57:33;95651.84;;;-11.89;57.47
59829;BME280;45708;51.848;107.620;2023-02-17T06:02:34;95639.94;;;-11.71;57.79
59829;BME280;45708;51.848;107.620;2023-02-17T06:07:34;95640.28;;;-11.43;58.23
59829;BME280;45708;51.848;107.620;2023-02-17T06:12:35;95642.16;;;-11.46;57.40
59829;BME280;45708;51.848;107.620;2023-02-17T06:17:36;95627.84;;;-11.49;56.96
59829;BME280;45708;51.848;107.620;2023-02-17T06:22:37;95626.59;;;-11.40;56.14
59829;BME280;45708;51.848;107.620;2023-02-17T06:27:38;95626.72;;;-11.26;57.06
59829;BME280;45708;51.848;107.620;2023-02-17T06:32:39;95625.00;;;-11.08;56.18
59829;BME280;45708;51.848;107.620;2023-02-17T06:37:40;95615.13;;;-10.81;56.94
59829;BME280;45708;51.848;107.620;2023-02-17T06:42:40;95593.97;;;-10.83;55.76
59829;BME280;45708;51.848;107.620;2023-02-17T06:47:41;95614.56;;;-10.86;55.16
59829;BME280;45708;51.848;107.620;2023-02-17T06:52:42;95601.13;;;-10.90;54.81
59829;BME280;45708;51.848;107.620;2023-02-17T06:57:43;95598.34;;;-11.02;55.16
59829;BME280;45708;51.848;107.620;2023-02-17T07:02:44;95594.88;;;-10.84;54.83
59829;BME280;45708;51.848;107.620;2023-02-17T07:07:45;95596.50;;;-10.66;54.35
59829;BME280;45708;51.848;107.620;2023-02-17T07:12:45;95589.78;;;-10.84;54.42
59829;BME280;45708;51.848;107.620;2023-02-17T07:17:46;95574.94;;;-10.93;54.17
59829;BME280;45708;51.848;107.620;2023-02-17T07:22:47;95581.41;;;-11.03;54.01
59829;BME280;45708;51.848;107.620;2023-02-17T07:27:48;95578.66;;;-11.33;55.13
59829;BME280;45708;51.848;107.620;2023-02-17T07:32:49;95584.03;;;-11.05;54.70
59829;BME280;45708;51.848;107.620;2023-02-17T07:37:50;95576.53;;;-11.25;54.50
59829;BME280;45708;51.848;107.620;2023-02-17T07:42:52;95585.63;;;-11.20;54.63
59829;BME280;45708;51.848;107.620;2023-02-17T07:47:52;95583.81;;;-11.00;55.04
59829;BME280;45708;51.848;107.620;2023-02-17T07:52:53;95589.97;;;-11.05;54.22
59829;BME280;45708;51.848;107.620;2023-02-17T07:57:54;95589.81;;;-11.01;54.64
59829;BME280;45708;51.848;107.620;2023-02-17T08:02:55;95584.81;;;-11.20;55.16
59829;BME280;45708;51.848;107.620;2023-02-17T08:07:55;95586.81;;;-11.10;54.91
59829;BME280;45708;51.848;107.620;2023-02-17T08:12:56;95575.19;;;-10.98;56.18
59829;BME280;45708;51.848;107.620;2023-02-17T08:17:57;95592.63;;;-10.73;55.08
59829;BME280;45708;51.848;107.620;2023-02-17T08:22:58;95589.28;;;-10.58;56.18
59829;BME280;45708;51.848;107.620;2023-02-17T08:27:59;95578.13;;;-10.39;55.51
59829;BME280;45708;51.848;107.620;2023-02-17T08:33:00;95581.09;;;-10.31;54.73
59829;BME280;45708;51.848;107.620;2023-02-17T08:38:01;95580.91;;;-10.28;55.63
59829;BME280;45708;51.848;107.620;2023-02-17T08:43:01;95577.44;;;-10.43;56.22
59829;BME280;45708;51.848;107.620;2023-02-17T08:48:03;95578.84;;;-10.53;54.69
59829;BME280;45708;51.848;107.620;2023-02-17T08:53:04;95573.50;;;-10.33;55.78
59829;BME280;45708;51.848;107.620;2023-02-17T08:58:05;95556.34;;;-10.47;54.69
59829;BME280;45708;51.848;107.620;2023-02-17T09:03:06;95572.41;;;-10.93;55.65
59829;BME280;45708;51.848;107.620;2023-02-17T09:08:07;95569.09;;;-10.95;55.33
59829;BME280;45708;51.848;107.620;2023-02-17T09:13:08;95571.34;;;-11.07;55.18
59829;BME280;45708;51.848;107.620;2023-02-17T09:18:09;95569.72;;;-11.08;54.81
59829;BME280;45708;51.848;107.620;2023-02-17T09:23:10;95567.78;;;-11.20;55.84
59829;BME280;45708;51.848;107.620;2023-02-17T09:28:11;95580.47;;;-11.36;55.80
59829;BME280;45708;51.848;107.620;2023-02-17T09:33:12;95573.47;;;-11.49;55.36
59829;BME280;45708;51.848;107.620;2023-02-17T09:38:13;95564.72;;;-11.61;56.38
59829;BME280;45708;51.848;107.620;2023-02-17T09:43:19;95566.44;;;-11.79;56.07
59829;BME280;45708;51.848;107.620;2023-02-17T09:48:28;95564.63;;;-11.94;56.09
59829;BME280;45708;51.848;107.620;2023-02-17T09:53:38;95559.41;;;-12.10;56.77
59829;BME280;45708;51.848;107.620;2023-02-17T09:58:47;95529.72;;;-12.47;56.80
59829;BME280;45708;51.848;107.620;2023-02-17T10:14:04;95556.56;;;-12.77;57.52
59829;BME280;45708;51.848;107.620;2023-02-17T10:19:20;95556.09;;;-12.87;57.66
59829;BME280;45708;51.848;107.620;2023-02-17T10:24:24;95548.22;;;-13.00;58.08
59829;BME280;45708;51.848;107.620;2023-02-17T10:35:11;95561.28;;;-13.09;57.80
59829;BME280;45708;51.848;107.620;2023-02-17T10:40:25;95564.19;;;-13.16;57.30
59829;BME280;45708;51.848;107.620;2023-02-17T10:45:48;95562.63;;;-13.19;57.72
59829;BME280;45708;51.848;107.620;2023-02-17T10:50:50;95562.63;;;-13.19;57.59
59829;BME280;45708;51.848;107.620;2023-02-17T11:01:19;95570.97;;;-13.17;58.52
59829;BME280;45708;51.848;107.620;2023-02-17T11:06:21;95547.88;;;-13.31;58.00
59829;BME280;45708;51.848;107.620;2023-02-17T11:11:34;95555.78;;;-13.37;58.04
59829;BME280;45708;51.848;107.620;2023-02-17T11:16:39;95558.53;;;-13.43;58.00
59829;BME280;45708;51.848;107.620;2023-02-17T11:21:42;95553.22;;;-13.37;58.87
59829;BME280;45708;51.848;107.620;2023-02-17T11:26:54;95546.38;;;-13.35;58.98
59829;BME280;45708;51.848;107.620;2023-02-17T11:32:07;95539.44;;;-13.52;58.85
59829;BME280;45708;51.848;107.620;2023-02-17T11:42:24;95550.53;;;-13.75;59.71
59829;BME280;45708;51.848;107.620;2023-02-17T11:53:02;95532.41;;;-13.88;60.07
59829;BME280;45708;51.848;107.620;2023-02-17T12:08:41;95524.56;;;-14.46;59.22
59829;BME280;45708;51.848;107.620;2023-02-17T12:34:56;95511.91;;;-14.91;60.55
59829;BME280;45708;51.848;107.620;2023-02-17T12:45:43;95487.50;;;-14.93;60.32
59829;BME280;45708;51.848;107.620;2023-02-17T12:51:17;95482.69;;;-14.78;61.35
59829;BME280;45708;51.848;107.620;2023-02-17T13:01:30;95492.59;;;-14.71;61.26
59829;BME280;45708;51.848;107.620;2023-02-17T13:06:36;95477.50;;;-14.74;61.18
59829;BME280;45708;51.848;107.620;2023-02-17T13:11:38;95474.16;;;-14.75;60.86
59829;BME280;45708;51.848;107.620;2023-02-17T13:16:44;95464.91;;;-14.76;60.33
59829;BME280;45708;51.848;107.620;2023-02-17T13:21:56;95472.69;;;-14.81;60.67
59829;BME280;45708;51.848;107.620;2023-02-17T13:27:53;95457.06;;;-15.15;60.48
59829;BME280;45708;51.848;107.620;2023-02-17T13:32:32;95459.50;;;-15.35;60.46
59829;BME280;45708;51.848;107.620;2023-02-17T13:42:37;95444.72;;;-15.48;61.34
59829;BME280;45708;51.848;107.620;2023-02-17T13:47:39;95434.94;;;-15.57;61.10
59829;BME280;45708;51.848;107.620;2023-02-17T13:52:42;95432.38;;;-15.79;61.69
59829;BME280;45708;51.848;107.620;2023-02-17T13:57:43;95431.94;;;-15.91;61.75
59829;BME280;45708;51.848;107.620;2023-02-17T14:02:56;95434.53;;;-15.93;62.09
59829;BME280;45708;51.848;107.620;2023-02-17T14:08:12;95441.25;;;-15.92;62.27
59829;BME280;45708;51.848;107.620;2023-02-17T14:13:14;95444.72;;;-15.94;62.18
59829;BME280;45708;51.848;107.620;2023-02-17T14:18:15;95447.13;;;-15.91;62.22
59829;BME280;45708;51.848;107.620;2023-02-17T14:23:26;95429.69;;;-15.99;62.20
59829;BME280;45708;51.848;107.620;2023-02-17T14:28:27;95424.22;;;-16.12;62.60
59829;BME280;45708;51.848;107.620;2023-02-17T14:33:28;95421.03;;;-16.17;62.10
59829;BME280;45708;51.848;107.620;2023-02-17T14:43:31;95413.44;;;-16.17;62.81
59829;BME280;45708;51.848;107.620;2023-02-17T14:48:32;95408.97;;;-16.10;62.30
59829;BME280;45708;51.848;107.620;2023-02-17T14:53:34;95405.22;;;-15.98;62.31
59829;BME280;45708;51.848;107.620;2023-02-17T14:58:35;95389.28;;;-15.77;62.59
59829;BME280;45708;51.848;107.620;2023-02-17T15:03:36;95398.50;;;-15.53;61.91
59829;BME280;45708;51.848;107.620;2023-02-17T15:08:37;95380.81;;;-15.31;62.95
59829;BME280;45708;51.848;107.620;2023-02-17T15:13:38;95369.28;;;-15.16;61.47
59829;BME280;45708;51.848;107.620;2023-02-17T15:18:39;95374.09;;;-15.10;61.70
59829;BME280;45708;51.848;107.620;2023-02-17T15:23:40;95366.44;;;-15.09;61.74
59829;BME280;45708;51.848;107.620;2023-02-17T15:28:41;95360.28;;;-15.03;62.90
59829;BME280;45708;51.848;107.620;2023-02-17T15:33:50;95352.88;;;-14.86;62.42
59829;BME280;45708;51.848;107.620;2023-02-17T15:38:54;95344.16;;;-14.79;63.04
59829;BME280;45708;51.848;107.620;2023-02-17T15:43:55;95342.81;;;-14.67;61.96
59829;BME280;45708;51.848;107.620;2023-02-17T15:48:57;95331.50;;;-14.58;62.82
59829;BME280;45708;51.848;107.620;2023-02-17T15:53:58;95318.75;;;-14.57;62.71
59829;BME280;45708;51.848;107.620;2023-02-17T15:59:03;95324.38;;;-14.50;62.21
59829;BME280;45708;51.848;107.620;2023-02-17T16:04:09;95316.16;;;-14.55;62.51
59829;BME280;45708;51.848;107.620;2023-02-17T16:09:10;95316.72;;;-14.49;62.26
59829;BME280;45708;51.848;107.620;2023-02-17T16:14:23;95315.88;;;-14.49;61.24
59829;BME280;45708;51.848;107.620;2023-02-17T16:19:25;95302.44;;;-14.51;62.62
59829;BME280;45708;51.848;107.620;2023-02-17T16:24:25;95297.94;;;-14.45;61.78
59829;BME280;45708;51.848;107.620;2023-02-17T16:29:26;95283.66;;;-14.47;61.84
59829;BME280;45708;51.848;107.620;2023-02-17T17:04:20;95238.72;;;-13.87;63.71
59829;BME280;45708;51.848;107.620;2023-02-17T17:09:23;95244.75;;;-13.71;62.44
59829;BME280;45708;51.848;107.620;2023-02-17T17:14:24;95244.91;;;-13.74;63.08
59829;BME280;45708;51.848;107.620;2023-02-17T17:19:25;95230.97;;;-13.84;62.62
59829;BME280;45708;51.848;107.620;2023-02-17T17:24:26;95229.16;;;-13.82;61.19
59829;BME280;45708;51.848;107.620;2023-02-17T17:29:27;95226.78;;;-13.85;61.49
59829;BME280;45708;51.848;107.620;2023-02-17T17:34:27;95231.72;;;-13.82;61.74
59829;BME280;45708;51.848;107.620;2023-02-17T17:39:28;95224.06;;;-13.80;61.56
59829;BME280;45708;51.848;107.620;2023-02-17T17:44:29;95214.22;;;-13.88;61.11
59829;BME280;45708;51.848;107.620;2023-02-17T17:49:30;95207.72;;;-13.94;61.39
59829;BME280;45708;51.848;107.620;2023-02-17T17:54:30;95213.63;;;-13.93;60.90
59829;BME280;45708;51.848;107.620;2023-02-17T17:59:31;95218.56;;;-13.90;61.13
59829;BME280;45708;51.848;107.620;2023-02-17T18:04:32;95203.31;;;-13.90;61.12
59829;BME280;45708;51.848;107.620;2023-02-17T18:09:35;95200.16;;;-13.95;60.24
59829;BME280;45708;51.848;107.620;2023-02-17T18:14:39;95195.91;;;-13.95;60.65
59829;BME280;45708;51.848;107.620;2023-02-17T18:19:41;95187.34;;;-13.92;60.67
59829;BME280;45708;51.848;107.620;2023-02-17T18:24:42;95174.78;;;-13.95;61.51
59829;BME280;45708;51.848;107.620;2023-02-17T18:29:43;95175.53;;;-13.93;60.40
59829;BME280;45708;51.848;107.620;2023-02-17T18:34:44;95180.63;;;-13.93;60.78
59829;BME280;45708;51.848;107.620;2023-02-17T18:39:44;95173.13;;;-13.96;60.32
59829;BME280;45708;51.848;107.620;2023-02-17T18:44:45;95168.22;;;-13.99;61.70
59829;BME280;45708;51.848;107.620;2023-02-17T18:49:46;95168.47;;;-14.05;60.37
59829;BME280;45708;51.848;107.620;2023-02-17T18:54:47;95166.22;;;-14.11;60.79
59829;BME280;45708;51.848;107.620;2023-02-17T18:59:47;95172.03;;;-14.09;60.61
59829;BME280;45708;51.848;107.620;2023-02-17T19:04:51;95172.88;;;-14.09;60.57
59829;BME280;45708;51.848;107.620;2023-02-17T19:09:52;95144.97;;;-14.28;60.48
59829;BME280;45708;51.848;107.620;2023-02-17T19:14:53;95151.75;;;-14.09;60.16
59829;BME280;45708;51.848;107.620;2023-02-17T19:19:54;95150.63;;;-14.23;59.99
59829;BME280;45708;51.848;107.620;2023-02-17T19:24:56;95145.16;;;-14.32;60.08
59829;BME280;45708;51.848;107.620;2023-02-17T19:29:57;95142.56;;;-14.31;60.20
59829;BME280;45708;51.848;107.620;2023-02-17T19:34:58;95132.97;;;-14.43;60.47
59829;BME280;45708;51.848;107.620;2023-02-17T19:39:58;95132.44;;;-14.50;60.92
59829;BME280;45708;51.848;107.620;2023-02-17T19:44:59;95120.66;;;-14.51;60.81
59829;BME280;45708;51.848;107.620;2023-02-17T19:50:00;95106.13;;;-14.47;61.33
59829;BME280;45708;51.848;107.620;2023-02-17T19:55:01;95103.91;;;-14.36;61.38
59829;BME280;45708;51.848;107.620;2023-02-17T20:00:02;95113.44;;;-14.41;60.11
59829;BME280;45708;51.848;107.620;2023-02-17T20:05:03;95102.69;;;-14.46;60.13
59829;BME280;45708;51.848;107.620;2023-02-17T20:10:06;95107.06;;;-14.50;60.61
59829;BME280;45708;51.848;107.620;2023-02-17T20:15:07;95099.97;;;-14.60;61.25
59829;BME280;45708;51.848;107.620;2023-02-17T20:20:09;95094.75;;;-14.57;61.96
59829;BME280;45708;51.848;107.620;2023-02-17T20:25:10;95093.13;;;-14.58;60.62
59829;BME280;45708;51.848;107.620;2023-02-17T20:30:11;95087.59;;;-14.68;61.44
59829;BME280;45708;51.848;107.620;2023-02-17T20:35:12;95087.59;;;-14.68;61.36
59829;BME280;45708;51.848;107.620;2023-02-17T20:40:13;95076.78;;;-14.71;60.79
59829;BME280;45708;51.848;107.620;2023-02-17T20:45:14;95085.97;;;-14.69;61.68
59829;BME280;45708;51.848;107.620;2023-02-17T20:50:17;95073.06;;;-14.64;62.21
59829;BME280;45708;51.848;107.620;2023-02-17T20:55:18;95078.72;;;-14.77;63.32
59829;BME280;45708;51.848;107.620;2023-02-17T21:00:21;95081.31;;;-14.97;64.06
59829;BME280;45708;51.848;107.620;2023-02-17T21:05:23;95062.06;;;-15.01;63.06
59829;BME280;45708;51.848;107.620;2023-02-17T21:10:26;95064.91;;;-15.09;64.02
59829;BME280;45708;51.848;107.620;2023-02-17T21:15:27;95056.53;;;-15.11;64.59
59829;BME280;45708;51.848;107.620;2023-02-17T21:20:28;95058.06;;;-15.07;64.34
59829;BME280;45708;51.848;107.620;2023-02-17T21:25:29;95048.81;;;-15.08;64.43
59829;BME280;45708;51.848;107.620;2023-02-17T21:30:30;95039.25;;;-15.01;64.51
59829;BME280;45708;51.848;107.620;2023-02-17T21:35:31;95038.47;;;-15.03;65.31
59829;BME280;45708;51.848;107.620;2023-02-17T21:40:31;95037.47;;;-14.99;64.47
59829;BME280;45708;51.848;107.620;2023-02-17T21:45:37;95036.38;;;-14.93;66.11
59829;BME280;45708;51.848;107.620;2023-02-17T21:50:38;95029.88;;;-14.99;65.35
59829;BME280;45708;51.848;107.620;2023-02-17T21:55:39;95039.84;;;-14.96;66.33
59829;BME280;45708;51.848;107.620;2023-02-17T22:00:40;95033.75;;;-14.92;65.70
59829;BME280;45708;51.848;107.620;2023-02-17T22:05:41;95038.16;;;-14.95;65.89
59829;BME280;45708;51.848;107.620;2023-02-17T22:10:42;95029.97;;;-14.83;66.66
59829;BME280;45708;51.848;107.620;2023-02-17T22:15:43;95026.84;;;-14.88;67.47
59829;BME280;45708;51.848;107.620;2023-02-17T22:20:43;95024.09;;;-14.84;66.78
59829;BME280;45708;51.848;107.620;2023-02-17T22:25:44;95013.88;;;-14.82;67.32
59829;BME280;45708;51.848;107.620;2023-02-17T22:30:51;95025.81;;;-14.84;67.55
59829;BME280;45708;51.848;107.620;2023-02-17T22:36:00;95015.25;;;-14.94;67.88
59829;BME280;45708;51.848;107.620;2023-02-17T22:41:06;95013.47;;;-14.92;67.96
59829;BME280;45708;51.848;107.620;2023-02-17T22:46:08;95022.44;;;-14.85;66.99
59829;BME280;45708;51.848;107.620;2023-02-17T22:51:18;95019.03;;;-14.84;68.00
59829;BME280;45708;51.848;107.620;2023-02-17T22:56:20;95033.75;;;-14.92;68.01
59829;BME280;45708;51.848;107.620;2023-02-17T23:01:22;95039.50;;;-14.88;68.99
59829;BME280;45708;51.848;107.620;2023-02-17T23:06:29;95036.75;;;-14.84;68.02
59829;BME280;45708;51.848;107.620;2023-02-17T23:11:33;95031.75;;;-15.04;68.67
59829;BME280;45708;51.848;107.620;2023-02-17T23:16:34;95020.13;;;-15.08;69.39
59829;BME280;45708;51.848;107.620;2023-02-17T23:21:35;95022.78;;;-15.11;69.82
59829;BME280;45708;51.848;107.620;2023-02-17T23:26:36;95023.06;;;-15.17;69.65
59829;BME280;45708;51.848;107.620;2023-02-17T23:31:37;95017.59;;;-15.08;69.73
59829;BME280;45708;51.848;107.620;2023-02-17T23:36:39;95021.91;;;-15.10;69.78
59829;BME280;45708;51.848;107.620;2023-02-17T23:41:40;95007.16;;;-15.02;69.09
59829;BME280;45708;51.848;107.620;2023-02-17T23:46:43;95014.66;;;-14.99;69.86
59829;BME280;45708;51.848;107.620;2023-02-17T23:51:44;95021.38;;;-14.79;69.45
59829;BME280;45708;51.848;107.620;2023-02-17T23:56:46;95026.28;;;-14.95;69.62
